• Join FlightAware (Why Join?)
  • Login
  • US Flag 
11:52PM EDT


 

Airport Tracker/Info


-or-


 

Live Flight TrackerFlight Track Log ✈ CAL958 ✈ 03-Apr-2014 ✈ ZSWZ / WNZ - RCSS / TSA

Flight Track Log - Related Links

Times and Time Zones

All times are in EDT time to prevent confusion due to time zone crossing. See the CAL958 flight status page for this flight to view local times or setup timezone preferences in your user account.

Time Position Orientation Groundspeed Altitude Reporting Facility
EDT Latitude Longitude Course Direction KTS MPH feet Rate Location/Type
07:22AM 27.6759 120.9115 167° South  Level Estimated
07:23AM 27.5971 120.9313 167° South  Level Estimated
07:24AM 27.5183 120.9511 167° South  Level Estimated
07:25AM 27.4395 120.9708 167° South  Level Estimated
07:26AM 27.3607 120.9905 167° South  Level Estimated
07:27AM 27.2819 121.0102 167° South  Level Estimated
07:28AM 27.2031 121.0299 167° South  Level Estimated
07:29AM 27.1242 121.0495 168° South  Level Estimated
07:30AM 27.0454 121.0691 168° South  Level Estimated
07:31AM 26.9666 121.0887 168° South  Level Estimated
07:32AM 26.8878 121.1082 168° South  Level Estimated
07:33AM 26.8090 121.1277 168° South  Level Estimated
07:34AM 26.7302 121.1472 168° South  Level Estimated
07:35AM 26.6513 121.1667 168° South  Level Estimated
07:36AM 26.5725 121.1861 168° South  Level Estimated
07:37AM 26.4937 121.2055 168° South  Level Estimated
07:38AM 26.4148 121.2249 168° South  Level Estimated
07:39AM 26.3360 121.2443 168° South  Level Estimated
07:40AM 26.2572 121.2636 168° South  Level Estimated
07:41AM 26.1783 121.2829 168° South  Level Estimated
07:42AM 26.0995 121.3022 168° South  Level Estimated
07:43AM 26.0206 121.3214 168° South  Level Estimated
07:44AM 25.9418 121.3407 168° South  Level Estimated
07:45AM 25.8629 121.3599 168° South  Level Estimated
07:46AM 25.7841 121.3791 168° South  Level Estimated
07:47AM 25.7052 121.3982 168° South  Level Estimated
07:48AM 25.6263 121.4173 168° South  Level Estimated
07:49AM 25.5475 121.4364 168° South  Level Estimated
07:50AM 25.4686 121.4555 168° South  Level Estimated
07:51AM 25.3897 121.4746 168° South  Level Estimated
07:52AM 25.3109 121.4936 168° South  Level Estimated
07:53AM 25.2320 121.5126 168° South  Level Estimated
07:54AM 25.1531 121.5316 168° South  Level Estimated
07:55AM 25.0743 121.5505 168° South  Level Estimated
07:56AM 25.0694 121.5517 168° South  Level Estimated
07:57AM 25.0694 121.5517 North  Level Estimated
07:58AM 25.0694 121.5517 North  Level Estimated
07:59AM 25.0694 121.5517 North  Level Estimated
08:00AM 25.0694 121.5517 North  Level Estimated
08:01AM 25.0694 121.5517 North  Level Estimated
08:02AM 25.0694 121.5517 North  Level Estimated
08:03AM 25.0694 121.5517 North  Level Estimated
08:04AM 25.0694 121.5517 North  Level Estimated
08:05AM 25.0694 121.5517 North  Level Estimated
08:06AM 25.0694 121.5517 North  Level Estimated
08:07AM 25.0694 121.5517 North  Level Estimated
08:08AM 25.0694 121.5517 North  Level Estimated
08:09AM 25.0694 121.5517 North  Level Estimated
08:10AM 25.0694 121.5517 North  Level Estimated
08:11AM 25.0694 121.5517 North  Level Estimated